createdAt,value
2023-04-30T00:00:37.579Z,13.50
2023-04-30T00:03:26.315Z,13.50
2023-04-30T00:06:14.876Z,13.50
2023-04-30T00:09:03.863Z,13.50
2023-04-30T00:11:52.823Z,13.50
2023-04-30T00:14:41.471Z,13.50
2023-04-30T00:17:30.511Z,13.40
2023-04-30T00:20:19.841Z,13.40
2023-04-30T00:23:08.419Z,13.30
2023-04-30T00:25:57.723Z,13.30
2023-04-30T00:28:46.212Z,13.30
2023-04-30T00:31:35.138Z,13.40
2023-04-30T00:34:24.528Z,13.40
2023-04-30T00:37:13.918Z,13.40
2023-04-30T00:40:02.728Z,13.30
2023-04-30T00:42:55.901Z,13.30
2023-04-30T00:45:44.954Z,13.30
2023-04-30T00:48:34.180Z,13.30
2023-04-30T00:51:25.490Z,13.30
2023-04-30T00:54:14.570Z,13.30
2023-04-30T00:57:05.874Z,13.30
2023-04-30T00:59:54.969Z,13.30
2023-04-30T01:02:44.819Z,13.30
2023-04-30T01:05:33.483Z,13.30
2023-04-30T01:08:22.516Z,13.30
2023-04-30T01:11:25.961Z,13.40
2023-04-30T01:14:27.297Z,13.40
2023-04-30T01:17:32.294Z,13.50
2023-04-30T01:20:21.302Z,13.50
2023-04-30T01:23:37.985Z,13.50
2023-04-30T01:26:50.978Z,13.50
2023-04-30T01:29:42.665Z,13.40
2023-04-30T01:32:31.816Z,13.40
2023-04-30T01:35:20.875Z,13.40
2023-04-30T01:38:22.050Z,13.30
2023-04-30T01:41:34.105Z,13.30
2023-04-30T01:44:55.252Z,13.20
2023-04-30T01:48:25.186Z,13.30
2023-04-30T01:51:43.963Z,13.40
2023-04-30T01:54:43.719Z,13.50
2023-04-30T01:57:39.076Z,13.40
2023-04-30T02:00:30.695Z,13.40
2023-04-30T02:03:19.952Z,13.40
2023-04-30T02:06:08.411Z,13.40
2023-04-30T02:09:03.495Z,13.30
2023-04-30T02:11:52.812Z,13.30
2023-04-30T02:14:42.302Z,13.20
2023-04-30T02:17:32.547Z,13.20
2023-04-30T02:20:21.055Z,13.20
2023-04-30T02:23:10.034Z,13.30
2023-04-30T02:25:58.549Z,13.20
2023-04-30T02:28:47.635Z,13.20
2023-04-30T02:31:36.075Z,13.10
2023-04-30T02:34:25.244Z,13.10
2023-04-30T02:37:14.758Z,13.10
2023-04-30T02:40:03.765Z,13.10
2023-04-30T02:42:55.030Z,13.10
2023-04-30T02:45:43.788Z,13.00
2023-04-30T02:48:32.786Z,13.00
2023-04-30T02:51:21.083Z,13.00
2023-04-30T02:54:10.482Z,12.90
2023-04-30T02:56:59.306Z,12.90
2023-04-30T02:59:48.536Z,12.90
2023-04-30T03:02:38.149Z,12.90
2023-04-30T03:05:27.964Z,12.90
2023-04-30T03:08:17.173Z,12.80
2023-04-30T03:11:31.833Z,12.80
2023-04-30T03:14:20.664Z,12.80
2023-04-30T03:17:09.287Z,12.80
2023-04-30T03:19:58.373Z,12.80
2023-04-30T03:22:47.022Z,12.80
2023-04-30T03:25:36.326Z,12.80
2023-04-30T03:28:25.815Z,12.70
2023-04-30T03:31:14.152Z,12.70
2023-04-30T03:34:02.559Z,12.70
2023-04-30T03:36:51.456Z,12.70
2023-04-30T03:39:40.470Z,12.70
2023-04-30T03:42:28.783Z,12.70
2023-04-30T03:45:17.780Z,12.70
2023-04-30T03:48:06.646Z,12.70
2023-04-30T03:50:55.647Z,12.70
2023-04-30T03:53:44.204Z,12.70
2023-04-30T03:56:34.472Z,12.70
2023-04-30T03:59:24.127Z,12.70
2023-04-30T04:02:13.279Z,12.70
2023-04-30T04:05:03.454Z,12.70
2023-04-30T04:07:52.563Z,12.70
2023-04-30T04:10:41.967Z,12.60
2023-04-30T04:13:31.746Z,12.60
2023-04-30T04:16:21.046Z,12.50
2023-04-30T04:19:10.083Z,12.50
2023-04-30T04:21:59.589Z,12.40
2023-04-30T04:24:48.817Z,12.40
2023-04-30T04:27:42.314Z,12.30
2023-04-30T04:30:31.770Z,12.30
2023-04-30T04:33:20.849Z,12.40
2023-04-30T04:36:10.026Z,12.40
2023-04-30T04:39:02.395Z,12.40
2023-04-30T04:41:52.141Z,12.30
2023-04-30T04:44:41.461Z,12.30
2023-04-30T04:47:30.787Z,12.30
2023-04-30T04:50:19.866Z,12.40
2023-04-30T04:53:08.273Z,12.40
2023-04-30T04:55:57.688Z,12.50
2023-04-30T04:58:46.505Z,12.60
2023-04-30T05:01:35.104Z,12.60
2023-04-30T05:04:24.060Z,12.70
2023-04-30T05:07:12.731Z,12.70
2023-04-30T05:10:01.669Z,12.70
2023-04-30T05:12:52.200Z,12.80
2023-04-30T05:15:41.302Z,12.90
2023-04-30T05:18:30.077Z,13.00
2023-04-30T05:21:19.317Z,13.00
2023-04-30T05:24:07.817Z,13.00
2023-04-30T05:26:56.892Z,13.10
2023-04-30T05:29:45.248Z,13.20
2023-04-30T05:32:34.788Z,13.30
2023-04-30T05:35:24.211Z,13.30
2023-04-30T05:38:13.528Z,13.30
2023-04-30T05:41:02.081Z,13.40
2023-04-30T05:43:50.537Z,13.50
2023-04-30T05:46:40.424Z,13.50
2023-04-30T05:49:28.731Z,13.60
2023-04-30T05:52:17.759Z,13.80
2023-04-30T05:55:07.983Z,13.90
2023-04-30T05:57:57.186Z,14.00
2023-04-30T06:00:50.794Z,14.20
2023-04-30T06:03:39.083Z,14.30
2023-04-30T06:06:28.399Z,14.20
2023-04-30T06:09:16.882Z,14.20
2023-04-30T06:12:06.308Z,14.30
2023-04-30T06:14:55.909Z,14.50
2023-04-30T06:17:44.983Z,14.70
2023-04-30T06:20:33.606Z,14.80
2023-04-30T06:23:22.716Z,14.90
2023-04-30T06:26:15.059Z,15.00
2023-04-30T06:29:04.196Z,15.00
2023-04-30T06:31:53.275Z,15.10
2023-04-30T06:34:41.546Z,15.40
2023-04-30T06:37:31.426Z,15.60
2023-04-30T06:40:21.653Z,15.90
2023-04-30T06:43:10.769Z,16.10
2023-04-30T06:45:59.324Z,16.10
2023-04-30T06:48:48.125Z,16.30
2023-04-30T06:51:37.439Z,16.60
2023-04-30T06:54:27.845Z,16.30
2023-04-30T06:57:17.037Z,16.40
2023-04-30T07:00:09.808Z,16.80
2023-04-30T07:03:03.046Z,16.70
2023-04-30T07:05:53.967Z,16.60
2023-04-30T07:08:44.118Z,17.00
2023-04-30T07:11:33.009Z,17.40
2023-04-30T07:14:21.591Z,17.00
2023-04-30T07:17:11.377Z,16.80
2023-04-30T07:20:00.663Z,16.70
2023-04-30T07:22:49.659Z,17.00
2023-04-30T07:25:38.479Z,17.40
2023-04-30T07:28:28.725Z,18.00
2023-04-30T07:31:19.372Z,18.60
2023-04-30T07:34:09.282Z,18.30
2023-04-30T07:36:58.249Z,18.70
2023-04-30T07:39:46.916Z,19.00
2023-04-30T07:42:35.844Z,19.00
2023-04-30T07:45:25.057Z,19.00
2023-04-30T07:48:14.138Z,18.90
2023-04-30T07:51:04.964Z,18.80
2023-04-30T07:53:53.600Z,19.20
2023-04-30T07:56:42.840Z,19.30
2023-04-30T07:59:32.079Z,19.20
2023-04-30T08:02:21.816Z,19.30
2023-04-30T08:05:10.364Z,19.50
2023-04-30T08:07:59.246Z,19.60
2023-04-30T08:10:48.582Z,19.40
2023-04-30T08:13:37.680Z,19.40
2023-04-30T08:16:26.754Z,19.30
2023-04-30T08:19:15.983Z,19.50
2023-04-30T08:22:05.802Z,19.70
2023-04-30T08:24:55.918Z,19.80
2023-04-30T08:27:45.245Z,19.80
2023-04-30T08:30:33.672Z,19.80
2023-04-30T08:33:22.246Z,20.10
2023-04-30T08:36:11.577Z,20.30
2023-04-30T08:39:01.897Z,20.10
2023-04-30T08:41:58.209Z,20.20
2023-04-30T08:44:48.275Z,20.20
2023-04-30T08:47:38.713Z,19.90
2023-04-30T08:50:28.664Z,19.90
2023-04-30T08:53:21.763Z,19.70
2023-04-30T08:56:10.931Z,19.80
2023-04-30T08:59:00.010Z,19.60
2023-04-30T09:01:50.177Z,19.60
2023-04-30T09:04:41.315Z,19.70
2023-04-30T09:07:33.875Z,19.80
2023-04-30T09:10:23.387Z,19.80
2023-04-30T09:13:12.855Z,19.90
2023-04-30T09:16:02.233Z,20.00
2023-04-30T09:18:51.954Z,20.00
2023-04-30T09:21:40.473Z,19.60
2023-04-30T09:24:47.720Z,19.60
2023-04-30T09:27:37.045Z,19.60
2023-04-30T09:30:32.934Z,19.70
2023-04-30T09:33:21.605Z,19.70
2023-04-30T09:36:11.677Z,20.00
2023-04-30T09:39:17.628Z,20.50
2023-04-30T09:42:10.806Z,20.70
2023-04-30T09:44:59.847Z,20.50
2023-04-30T09:47:48.897Z,20.90
2023-04-30T09:50:43.455Z,20.60
2023-04-30T09:53:38.237Z,20.30
2023-04-30T09:56:27.445Z,20.40
2023-04-30T09:59:18.295Z,20.50
2023-04-30T10:02:08.577Z,20.30
2023-04-30T10:05:00.044Z,20.70
2023-04-30T10:07:49.274Z,20.70
2023-04-30T10:10:41.430Z,20.70
2023-04-30T10:13:33.669Z,20.90
2023-04-30T10:16:43.622Z,21.20
2023-04-30T10:19:35.198Z,21.50
2023-04-30T10:22:24.720Z,21.00
2023-04-30T10:25:14.840Z,21.20
2023-04-30T10:28:04.872Z,21.40
2023-04-30T10:30:53.973Z,21.70
2023-04-30T10:33:55.122Z,21.50
2023-04-30T10:36:51.002Z,21.30
2023-04-30T10:39:39.938Z,21.10
2023-04-30T10:42:28.642Z,21.20
2023-04-30T10:45:17.729Z,20.90
2023-04-30T10:48:08.210Z,20.70
2023-04-30T10:50:59.796Z,20.80
2023-04-30T10:53:54.776Z,21.10
2023-04-30T10:56:47.428Z,20.90
2023-04-30T10:59:37.205Z,21.10
2023-04-30T11:02:40.161Z,21.20
2023-04-30T11:05:39.922Z,21.30
2023-04-30T11:08:36.974Z,21.30
2023-04-30T11:11:25.927Z,21.20
2023-04-30T11:14:21.474Z,21.10
2023-04-30T11:17:12.183Z,20.80
2023-04-30T11:20:03.620Z,20.70
2023-04-30T11:23:22.274Z,20.70
2023-04-30T11:26:21.438Z,20.80
2023-04-30T11:29:11.013Z,20.50
2023-04-30T11:32:04.623Z,20.60
2023-04-30T11:34:55.452Z,20.70
2023-04-30T11:37:45.782Z,20.70
2023-04-30T11:40:36.927Z,20.90
2023-04-30T11:43:27.162Z,20.70
2023-04-30T11:46:18.801Z,20.60
2023-04-30T11:49:09.283Z,20.60
2023-04-30T11:51:57.649Z,20.70
2023-04-30T11:54:46.560Z,20.60
2023-04-30T11:57:41.173Z,20.60
2023-04-30T12:00:31.640Z,20.70
2023-04-30T12:03:20.222Z,21.00
2023-04-30T12:06:12.350Z,21.10
2023-04-30T12:09:11.791Z,21.10
2023-04-30T12:12:00.189Z,21.10
2023-04-30T12:14:49.098Z,21.10
2023-04-30T12:17:37.824Z,21.10
2023-04-30T12:20:29.419Z,21.20
2023-04-30T12:23:18.675Z,21.00
2023-04-30T12:26:07.506Z,21.00
2023-04-30T12:28:56.398Z,21.00
2023-04-30T12:31:49.259Z,20.90
2023-04-30T12:34:38.938Z,21.00
2023-04-30T12:37:27.901Z,21.10
2023-04-30T12:40:16.978Z,21.30
2023-04-30T12:43:10.081Z,21.50
2023-04-30T12:45:59.004Z,21.60
2023-04-30T12:48:48.082Z,21.60
2023-04-30T12:51:36.971Z,21.20
2023-04-30T12:54:30.083Z,21.20
2023-04-30T12:57:19.600Z,21.00
2023-04-30T13:00:09.124Z,20.80
2023-04-30T13:02:58.047Z,20.70
2023-04-30T13:05:51.805Z,20.70
2023-04-30T13:08:53.959Z,20.60
2023-04-30T13:11:47.871Z,20.60
2023-04-30T13:14:37.223Z,20.60
2023-04-30T13:17:26.787Z,20.60
2023-04-30T13:20:19.024Z,20.50
2023-04-30T13:23:08.610Z,20.50
2023-04-30T13:25:57.547Z,20.50
2023-04-30T13:28:46.263Z,20.20
2023-04-30T13:31:35.730Z,20.00
2023-04-30T13:34:24.914Z,20.00
2023-04-30T13:37:13.818Z,20.00
2023-04-30T13:40:04.099Z,20.00
2023-04-30T13:42:53.378Z,20.00
2023-04-30T13:45:42.359Z,19.80
2023-04-30T13:48:31.604Z,19.50
2023-04-30T13:51:21.097Z,19.40
2023-04-30T13:54:10.422Z,19.20
2023-04-30T13:57:03.414Z,19.10
2023-04-30T13:59:52.135Z,18.90
2023-04-30T14:02:41.144Z,18.40
2023-04-30T14:05:30.455Z,18.20
2023-04-30T14:08:20.553Z,18.10
2023-04-30T14:11:10.943Z,18.10
2023-04-30T14:14:00.160Z,18.00
2023-04-30T14:16:48.939Z,18.00
2023-04-30T14:19:37.597Z,17.80
2023-04-30T14:22:26.629Z,17.70
2023-04-30T14:25:17.387Z,17.60
2023-04-30T14:28:05.982Z,17.70
2023-04-30T14:30:54.681Z,17.70
2023-04-30T14:33:44.742Z,17.70
2023-04-30T14:36:34.750Z,17.70
2023-04-30T14:39:23.748Z,17.50
2023-04-30T14:42:12.697Z,17.50
2023-04-30T14:45:01.947Z,17.60
2023-04-30T14:47:53.800Z,17.60
2023-04-30T14:50:43.961Z,17.60
2023-04-30T14:53:33.967Z,17.60
2023-04-30T14:56:24.370Z,17.50
2023-04-30T14:59:14.072Z,17.60
2023-04-30T15:02:03.473Z,17.70
2023-04-30T15:04:52.523Z,17.70
2023-04-30T15:07:41.268Z,17.70
2023-04-30T15:10:30.654Z,17.80
2023-04-30T15:13:19.229Z,18.00
2023-04-30T15:16:07.986Z,17.90
2023-04-30T15:18:57.055Z,17.80
2023-04-30T15:21:47.023Z,17.80
2023-04-30T15:24:38.497Z,17.80
2023-04-30T15:27:31.841Z,18.00
2023-04-30T15:30:22.198Z,18.10
2023-04-30T15:33:12.925Z,18.20
2023-04-30T15:36:02.619Z,18.30
2023-04-30T15:38:52.029Z,18.30
2023-04-30T15:41:41.623Z,18.20
2023-04-30T15:44:33.973Z,18.20
2023-04-30T15:47:24.275Z,18.00
2023-04-30T15:50:13.627Z,17.90
2023-04-30T15:53:02.983Z,17.80
2023-04-30T15:55:52.472Z,17.70
2023-04-30T15:58:41.625Z,17.60
2023-04-30T16:01:30.336Z,17.60
2023-04-30T16:04:19.940Z,17.50
2023-04-30T16:07:09.068Z,17.50
2023-04-30T16:09:59.878Z,17.50
2023-04-30T16:12:48.633Z,17.40
2023-04-30T16:15:38.250Z,17.40
2023-04-30T16:18:30.091Z,17.40
2023-04-30T16:21:18.521Z,17.40
2023-04-30T16:24:09.495Z,17.40
2023-04-30T16:27:01.255Z,17.40
2023-04-30T16:29:59.869Z,17.40
2023-04-30T16:32:49.464Z,17.30
2023-04-30T16:35:38.891Z,17.30
2023-04-30T16:38:27.410Z,17.20
2023-04-30T16:41:17.791Z,17.20
2023-04-30T16:44:06.270Z,17.10
2023-04-30T16:46:57.290Z,17.00
2023-04-30T16:49:46.083Z,17.00
2023-04-30T16:52:34.905Z,17.00
2023-04-30T16:55:23.974Z,17.00
2023-04-30T16:58:12.410Z,16.90
2023-04-30T17:01:01.806Z,16.90
2023-04-30T17:03:51.645Z,16.80
2023-04-30T17:06:40.636Z,16.70
2023-04-30T17:09:29.999Z,16.80
2023-04-30T17:12:19.626Z,16.70
2023-04-30T17:15:09.458Z,16.70
2023-04-30T17:17:58.732Z,16.60
2023-04-30T17:20:48.607Z,16.50
2023-04-30T17:23:37.654Z,16.50
2023-04-30T17:26:26.846Z,16.40
2023-04-30T17:29:15.334Z,16.40
2023-04-30T17:32:04.639Z,16.30
2023-04-30T17:34:54.065Z,16.20
2023-04-30T17:37:42.468Z,16.20
2023-04-30T17:40:31.928Z,16.20
2023-04-30T17:43:20.835Z,16.10
2023-04-30T17:46:09.846Z,16.10
2023-04-30T17:49:02.069Z,16.10
2023-04-30T17:51:50.695Z,16.00
2023-04-30T17:54:39.516Z,16.00
2023-04-30T17:57:28.653Z,16.00
2023-04-30T18:00:18.707Z,16.00
2023-04-30T18:03:08.610Z,16.00
2023-04-30T18:05:57.292Z,15.90
2023-04-30T18:08:46.619Z,15.90
2023-04-30T18:11:35.403Z,15.90
2023-04-30T18:14:24.365Z,15.90
2023-04-30T18:17:15.490Z,15.80
2023-04-30T18:20:04.808Z,15.80
2023-04-30T18:22:53.971Z,15.70
2023-04-30T18:25:43.782Z,15.70
2023-04-30T18:28:32.655Z,15.70
2023-04-30T18:31:21.449Z,15.60
2023-04-30T18:34:10.759Z,15.60
2023-04-30T18:37:00.706Z,15.60
2023-04-30T18:39:51.449Z,15.50
2023-04-30T18:42:40.525Z,15.50
2023-04-30T18:45:29.146Z,15.50
2023-04-30T18:48:23.074Z,15.40
2023-04-30T18:51:12.212Z,15.40
2023-04-30T18:54:01.908Z,15.30
2023-04-30T18:56:51.472Z,15.20
2023-04-30T18:59:39.890Z,15.20
2023-04-30T19:02:29.495Z,15.10
2023-04-30T19:05:18.212Z,15.10
2023-04-30T19:08:08.244Z,15.10
2023-04-30T19:10:57.791Z,15.10
2023-04-30T19:13:47.010Z,15.00
2023-04-30T19:16:35.850Z,15.00
2023-04-30T19:19:24.936Z,15.00
2023-04-30T19:22:15.186Z,15.00
2023-04-30T19:25:04.602Z,15.00
2023-04-30T19:27:53.911Z,15.00
2023-04-30T19:30:43.097Z,14.90
2023-04-30T19:33:38.359Z,14.80
2023-04-30T19:36:27.570Z,14.80
2023-04-30T19:39:16.760Z,14.80
2023-04-30T19:42:31.771Z,14.80
2023-04-30T19:45:21.589Z,14.80
2023-04-30T19:48:40.107Z,14.80
2023-04-30T19:51:29.649Z,14.70
2023-04-30T19:54:19.042Z,14.70
2023-04-30T19:57:07.862Z,14.60
2023-04-30T19:59:56.699Z,14.70
2023-04-30T20:02:46.067Z,14.70
2023-04-30T20:05:39.831Z,14.70
2023-04-30T20:08:29.026Z,14.70
2023-04-30T20:11:17.881Z,14.60
2023-04-30T20:14:06.750Z,14.50
2023-04-30T20:16:56.612Z,14.40
2023-04-30T20:19:46.209Z,14.50
2023-04-30T20:22:34.806Z,14.50
2023-04-30T20:25:31.557Z,14.50
2023-04-30T20:28:20.400Z,14.50
2023-04-30T20:31:09.898Z,14.50
2023-04-30T20:33:59.798Z,14.60
2023-04-30T20:36:48.768Z,14.60
2023-04-30T20:39:39.204Z,14.60
2023-04-30T20:42:29.105Z,14.50
2023-04-30T20:45:19.677Z,14.60
2023-04-30T20:48:33.770Z,14.50
2023-04-30T20:51:23.611Z,14.50
2023-04-30T20:54:37.529Z,14.50
2023-04-30T20:57:26.999Z,14.50
2023-04-30T21:00:41.256Z,14.60
2023-04-30T21:03:30.587Z,14.60
2023-04-30T21:06:19.480Z,14.60
2023-04-30T21:09:08.057Z,14.50
2023-04-30T21:11:57.430Z,14.50
2023-04-30T21:14:46.219Z,14.50
2023-04-30T21:17:35.630Z,14.50
2023-04-30T21:20:25.772Z,14.50
2023-04-30T21:23:14.748Z,14.60
2023-04-30T21:26:04.199Z,14.60
2023-04-30T21:28:52.856Z,14.60
2023-04-30T21:31:41.824Z,14.60
2023-04-30T21:34:32.303Z,14.50
2023-04-30T21:37:20.874Z,14.40
2023-04-30T21:40:10.915Z,14.50
2023-04-30T21:43:01.838Z,14.50
2023-04-30T21:45:50.818Z,14.40
2023-04-30T21:48:40.302Z,14.50
2023-04-30T21:51:28.651Z,14.50
2023-04-30T21:54:19.354Z,14.50
2023-04-30T21:57:08.084Z,14.50
2023-04-30T21:59:58.893Z,14.50
2023-04-30T22:02:48.700Z,14.50
2023-04-30T22:05:39.893Z,14.40
2023-04-30T22:08:29.180Z,14.40
2023-04-30T22:11:18.542Z,14.40
2023-04-30T22:14:07.020Z,14.40
2023-04-30T22:16:55.693Z,14.40
2023-04-30T22:19:44.571Z,14.40
2023-04-30T22:22:34.006Z,14.40
2023-04-30T22:25:23.298Z,14.40
2023-04-30T22:28:12.002Z,14.40
2023-04-30T22:31:00.815Z,14.40
2023-04-30T22:33:49.728Z,14.40
2023-04-30T22:36:38.056Z,14.40
2023-04-30T22:39:27.340Z,14.30
2023-04-30T22:42:17.089Z,14.30
2023-04-30T22:45:06.813Z,14.30
2023-04-30T22:47:56.789Z,14.30
2023-04-30T22:50:45.689Z,14.30
2023-04-30T22:53:34.522Z,14.20
2023-04-30T22:56:23.504Z,14.30
2023-04-30T22:59:12.442Z,14.30
2023-04-30T23:02:01.068Z,14.30
2023-04-30T23:04:49.921Z,14.20
2023-04-30T23:07:39.343Z,14.20
2023-04-30T23:10:27.689Z,14.20
2023-04-30T23:13:18.709Z,14.20
2023-04-30T23:16:10.432Z,14.20
2023-04-30T23:18:59.388Z,14.20
2023-04-30T23:21:48.910Z,14.10
2023-04-30T23:24:39.298Z,14.10
2023-04-30T23:27:28.865Z,14.10
2023-04-30T23:30:17.644Z,14.00
2023-04-30T23:33:07.026Z,14.00
2023-04-30T23:35:56.006Z,14.10
2023-04-30T23:38:46.649Z,14.00
2023-04-30T23:41:35.484Z,14.10
2023-04-30T23:44:23.885Z,14.10
2023-04-30T23:47:13.074Z,14.00
2023-04-30T23:50:01.325Z,14.00
2023-04-30T23:52:54.202Z,14.00
2023-04-30T23:55:42.679Z,14.00
2023-04-30T23:58:31.663Z,14.00
